Merry Hill, North Carolina
Current Conditions -  °F | °C
As of 12:15 PM on Friday 24 Oct 2014 (Local Time) from KASJ Reporting Station
Clear Clear  
Wind Chill: 64°   Ceiling: Unl
Heat Index: 64°   Visibility: 10mi
Dew Point: 44°   Wind: 5mph
Humidity: 47%   Direction: 270°W
Pressure: 30.01"   Gusts: NA
Location:  36.2°N, 77.06°W
Report Text: KASJ 241615Z AUTO 27004KT 10SM CLR 18/06 A3001 RMK AO2 T01790064
Loading
Personal Weather Stations






























Interactive Weather Map
Tropical Storm Tracking
New forecast layout! Learn more

10-Day Weather Forecast

Advertisements
Track Severe Weather on mobile